sensor_id;sensor_type;location;lat;lon;timestamp;temperature;humidity
8707;DHT22;4390;49.302;9.306;2022-10-16T00:00:35;15.40;98.30
8707;DHT22;4390;49.302;9.306;2022-10-16T00:03:03;15.40;98.30
8707;DHT22;4390;49.302;9.306;2022-10-16T00:05:30;15.40;98.30
8707;DHT22;4390;49.302;9.306;2022-10-16T00:07:57;15.50;98.30
8707;DHT22;4390;49.302;9.306;2022-10-16T00:10:24;15.60;98.30
8707;DHT22;4390;49.302;9.306;2022-10-16T00:12:51;15.50;98.30
8707;DHT22;4390;49.302;9.306;2022-10-16T00:15:17;15.50;98.30
8707;DHT22;4390;49.302;9.306;2022-10-16T00:17:44;15.40;98.30
8707;DHT22;4390;49.302;9.306;2022-10-16T00:20:11;15.40;98.30
8707;DHT22;4390;49.302;9.306;2022-10-16T00:22:37;15.50;98.30
8707;DHT22;4390;49.302;9.306;2022-10-16T00:25:04;15.60;98.30
8707;DHT22;4390;49.302;9.306;2022-10-16T00:27:31;15.60;98.30
8707;DHT22;4390;49.302;9.306;2022-10-16T00:29:58;15.40;98.30
8707;DHT22;4390;49.302;9.306;2022-10-16T00:32:29;15.30;98.30
8707;DHT22;4390;49.302;9.306;2022-10-16T00:34:56;15.40;98.30
8707;DHT22;4390;49.302;9.306;2022-10-16T00:37:23;15.40;98.30
8707;DHT22;4390;49.302;9.306;2022-10-16T00:39:49;15.20;98.30
8707;DHT22;4390;49.302;9.306;2022-10-16T00:42:17;15.30;98.30
8707;DHT22;4390;49.302;9.306;2022-10-16T00:44:49;15.30;98.30
8707;DHT22;4390;49.302;9.306;2022-10-16T00:47:26;15.30;98.30
8707;DHT22;4390;49.302;9.306;2022-10-16T00:50:00;15.30;98.30
8707;DHT22;4390;49.302;9.306;2022-10-16T00:52:28;15.30;98.30
8707;DHT22;4390;49.302;9.306;2022-10-16T00:54:56;15.30;98.30
8707;DHT22;4390;49.302;9.306;2022-10-16T00:57:23;15.30;98.30
8707;DHT22;4390;49.302;9.306;2022-10-16T00:59:51;15.40;98.30
8707;DHT22;4390;49.302;9.306;2022-10-16T01:02:18;15.30;98.30
8707;DHT22;4390;49.302;9.306;2022-10-16T01:04:48;15.40;98.30
8707;DHT22;4390;49.302;9.306;2022-10-16T01:12:45;15.40;98.30
8707;DHT22;4390;49.302;9.306;2022-10-16T01:15:37;15.30;98.30
8707;DHT22;4390;49.302;9.306;2022-10-16T01:29:25;15.30;98.30
8707;DHT22;4390;49.302;9.306;2022-10-16T01:31:57;15.30;98.30
8707;DHT22;4390;49.302;9.306;2022-10-16T01:34:33;15.30;98.30
8707;DHT22;4390;49.302;9.306;2022-10-16T01:37:07;15.30;98.30
8707;DHT22;4390;49.302;9.306;2022-10-16T01:39:38;15.40;98.30
8707;DHT22;4390;49.302;9.306;2022-10-16T01:42:24;15.40;98.30
8707;DHT22;4390;49.302;9.306;2022-10-16T01:44:54;15.40;98.30
8707;DHT22;4390;49.302;9.306;2022-10-16T01:47:23;15.40;98.30
8707;DHT22;4390;49.302;9.306;2022-10-16T01:49:53;15.40;98.30
8707;DHT22;4390;49.302;9.306;2022-10-16T01:52:23;15.40;98.30
8707;DHT22;4390;49.302;9.306;2022-10-16T01:54:54;15.40;98.30
8707;DHT22;4390;49.302;9.306;2022-10-16T01:57:24;15.50;98.30
8707;DHT22;4390;49.302;9.306;2022-10-16T01:59:56;15.50;98.30
8707;DHT22;4390;49.302;9.306;2022-10-16T02:02:26;15.40;98.30
8707;DHT22;4390;49.302;9.306;2022-10-16T02:04:58;15.50;98.30
8707;DHT22;4390;49.302;9.306;2022-10-16T02:07:28;15.50;98.30
8707;DHT22;4390;49.302;9.306;2022-10-16T02:09:55;15.50;98.30
8707;DHT22;4390;49.302;9.306;2022-10-16T02:12:31;15.70;98.30
8707;DHT22;4390;49.302;9.306;2022-10-16T02:14:59;15.60;98.30
8707;DHT22;4390;49.302;9.306;2022-10-16T02:17:26;15.50;98.30
8707;DHT22;4390;49.302;9.306;2022-10-16T02:19:54;15.40;98.30
8707;DHT22;4390;49.302;9.306;2022-10-16T02:22:36;15.30;98.30
8707;DHT22;4390;49.302;9.306;2022-10-16T02:25:22;15.30;98.30
8707;DHT22;4390;49.302;9.306;2022-10-16T02:30:37;15.30;98.30
8707;DHT22;4390;49.302;9.306;2022-10-16T02:33:08;15.20;98.30
8707;DHT22;4390;49.302;9.306;2022-10-16T02:35:37;15.40;98.30
8707;DHT22;4390;49.302;9.306;2022-10-16T02:38:05;15.40;98.30
8707;DHT22;4390;49.302;9.306;2022-10-16T02:40:33;15.50;98.30
8707;DHT22;4390;49.302;9.306;2022-10-16T02:43:00;15.60;98.30
8707;DHT22;4390;49.302;9.306;2022-10-16T02:45:29;15.50;98.30
8707;DHT22;4390;49.302;9.306;2022-10-16T02:47:56;15.30;98.30
8707;DHT22;4390;49.302;9.306;2022-10-16T02:50:23;15.20;98.30
8707;DHT22;4390;49.302;9.306;2022-10-16T02:52:51;15.20;98.30
8707;DHT22;4390;49.302;9.306;2022-10-16T02:55:18;15.20;98.30
8707;DHT22;4390;49.302;9.306;2022-10-16T02:57:45;15.30;98.30
8707;DHT22;4390;49.302;9.306;2022-10-16T03:00:14;15.30;98.30
8707;DHT22;4390;49.302;9.306;2022-10-16T03:02:41;15.20;98.30
8707;DHT22;4390;49.302;9.306;2022-10-16T03:05:09;15.20;98.30
8707;DHT22;4390;49.302;9.306;2022-10-16T03:07:36;15.20;98.30
8707;DHT22;4390;49.302;9.306;2022-10-16T03:10:03;15.30;98.30
8707;DHT22;4390;49.302;9.306;2022-10-16T03:12:30;15.30;98.30
8707;DHT22;4390;49.302;9.306;2022-10-16T03:14:57;15.30;98.30
8707;DHT22;4390;49.302;9.306;2022-10-16T03:17:24;15.30;98.30
8707;DHT22;4390;49.302;9.306;2022-10-16T03:19:52;15.30;98.30
8707;DHT22;4390;49.302;9.306;2022-10-16T03:22:18;15.50;98.30
8707;DHT22;4390;49.302;9.306;2022-10-16T03:24:45;15.60;98.30
8707;DHT22;4390;49.302;9.306;2022-10-16T03:27:12;15.80;98.30
8707;DHT22;4390;49.302;9.306;2022-10-16T03:29:39;15.60;98.30
8707;DHT22;4390;49.302;9.306;2022-10-16T03:32:05;15.40;98.30
8707;DHT22;4390;49.302;9.306;2022-10-16T03:34:32;15.40;98.30
8707;DHT22;4390;49.302;9.306;2022-10-16T03:36:59;15.50;98.30
8707;DHT22;4390;49.302;9.306;2022-10-16T03:39:25;15.40;98.30
8707;DHT22;4390;49.302;9.306;2022-10-16T03:41:52;15.40;98.30
8707;DHT22;4390;49.302;9.306;2022-10-16T03:44:19;15.70;98.30
8707;DHT22;4390;49.302;9.306;2022-10-16T03:46:45;15.50;98.30
8707;DHT22;4390;49.302;9.306;2022-10-16T03:49:12;15.30;98.30
8707;DHT22;4390;49.302;9.306;2022-10-16T03:51:39;15.30;98.30
8707;DHT22;4390;49.302;9.306;2022-10-16T03:54:05;15.20;98.30
8707;DHT22;4390;49.302;9.306;2022-10-16T03:56:32;15.40;98.30
8707;DHT22;4390;49.302;9.306;2022-10-16T03:58:59;15.40;98.30
8707;DHT22;4390;49.302;9.306;2022-10-16T04:01:26;15.40;98.30
8707;DHT22;4390;49.302;9.306;2022-10-16T04:03:53;15.50;98.30
8707;DHT22;4390;49.302;9.306;2022-10-16T04:06:19;15.60;98.30
8707;DHT22;4390;49.302;9.306;2022-10-16T04:08:46;15.40;98.30
8707;DHT22;4390;49.302;9.306;2022-10-16T04:11:13;15.60;98.30
8707;DHT22;4390;49.302;9.306;2022-10-16T04:13:39;15.70;98.30
8707;DHT22;4390;49.302;9.306;2022-10-16T04:16:06;15.50;98.30
8707;DHT22;4390;49.302;9.306;2022-10-16T04:18:33;15.40;98.30
8707;DHT22;4390;49.302;9.306;2022-10-16T04:21:04;15.40;98.30
8707;DHT22;4390;49.302;9.306;2022-10-16T04:23:31;15.40;98.30
8707;DHT22;4390;49.302;9.306;2022-10-16T04:25:59;15.40;98.30
8707;DHT22;4390;49.302;9.306;2022-10-16T04:28:26;15.40;98.30
8707;DHT22;4390;49.302;9.306;2022-10-16T04:30:53;15.50;98.30
8707;DHT22;4390;49.302;9.306;2022-10-16T04:33:20;15.50;98.30
8707;DHT22;4390;49.302;9.306;2022-10-16T04:35:47;15.50;98.30
8707;DHT22;4390;49.302;9.306;2022-10-16T04:38:13;15.50;98.30
8707;DHT22;4390;49.302;9.306;2022-10-16T04:40:42;15.40;98.30
8707;DHT22;4390;49.302;9.306;2022-10-16T04:43:09;15.40;98.30
8707;DHT22;4390;49.302;9.306;2022-10-16T04:45:36;15.50;98.30
8707;DHT22;4390;49.302;9.306;2022-10-16T04:48:03;15.50;98.30
8707;DHT22;4390;49.302;9.306;2022-10-16T04:50:29;15.70;98.30
8707;DHT22;4390;49.302;9.306;2022-10-16T04:53:06;15.60;98.30
8707;DHT22;4390;49.302;9.306;2022-10-16T04:55:33;15.60;98.30
8707;DHT22;4390;49.302;9.306;2022-10-16T04:58:00;15.50;98.30
8707;DHT22;4390;49.302;9.306;2022-10-16T05:00:27;15.70;98.30
8707;DHT22;4390;49.302;9.306;2022-10-16T05:02:53;15.60;98.30
8707;DHT22;4390;49.302;9.306;2022-10-16T05:05:20;15.40;98.30
8707;DHT22;4390;49.302;9.306;2022-10-16T05:07:48;15.30;98.30
8707;DHT22;4390;49.302;9.306;2022-10-16T05:10:16;15.40;98.30
8707;DHT22;4390;49.302;9.306;2022-10-16T05:12:42;15.40;98.30
8707;DHT22;4390;49.302;9.306;2022-10-16T05:15:10;15.40;98.30
8707;DHT22;4390;49.302;9.306;2022-10-16T05:17:37;15.40;98.30
8707;DHT22;4390;49.302;9.306;2022-10-16T05:20:10;15.40;98.30
8707;DHT22;4390;49.302;9.306;2022-10-16T05:22:38;15.40;98.30
8707;DHT22;4390;49.302;9.306;2022-10-16T05:25:05;15.40;98.30
8707;DHT22;4390;49.302;9.306;2022-10-16T05:27:32;15.40;98.30
8707;DHT22;4390;49.302;9.306;2022-10-16T05:29:58;15.40;98.30
8707;DHT22;4390;49.302;9.306;2022-10-16T05:32:26;15.40;98.30
8707;DHT22;4390;49.302;9.306;2022-10-16T05:34:53;15.50;98.30
8707;DHT22;4390;49.302;9.306;2022-10-16T05:37:19;15.50;98.30
8707;DHT22;4390;49.302;9.306;2022-10-16T05:39:46;15.50;98.30
8707;DHT22;4390;49.302;9.306;2022-10-16T05:42:13;15.60;98.30
8707;DHT22;4390;49.302;9.306;2022-10-16T05:44:41;15.60;98.30
8707;DHT22;4390;49.302;9.306;2022-10-16T05:47:08;15.50;98.30
8707;DHT22;4390;49.302;9.306;2022-10-16T05:49:37;15.60;98.30
8707;DHT22;4390;49.302;9.306;2022-10-16T05:52:07;15.60;98.30
8707;DHT22;4390;49.302;9.306;2022-10-16T05:54:33;15.50;98.30
8707;DHT22;4390;49.302;9.306;2022-10-16T05:57:00;15.70;98.30
8707;DHT22;4390;49.302;9.306;2022-10-16T05:59:27;15.80;98.30
8707;DHT22;4390;49.302;9.306;2022-10-16T06:01:54;15.70;98.30
8707;DHT22;4390;49.302;9.306;2022-10-16T06:04:21;15.70;98.30
8707;DHT22;4390;49.302;9.306;2022-10-16T06:06:47;15.90;98.30
8707;DHT22;4390;49.302;9.306;2022-10-16T06:09:14;15.90;98.30
8707;DHT22;4390;49.302;9.306;2022-10-16T06:11:41;15.70;98.30
8707;DHT22;4390;49.302;9.306;2022-10-16T06:14:08;15.50;98.30
8707;DHT22;4390;49.302;9.306;2022-10-16T06:16:37;15.40;98.30
8707;DHT22;4390;49.302;9.306;2022-10-16T06:19:04;15.40;98.30
8707;DHT22;4390;49.302;9.306;2022-10-16T06:21:33;15.50;98.30
8707;DHT22;4390;49.302;9.306;2022-10-16T06:24:00;15.60;98.30
8707;DHT22;4390;49.302;9.306;2022-10-16T06:26:29;15.70;98.30
8707;DHT22;4390;49.302;9.306;2022-10-16T06:29:00;15.80;98.30
8707;DHT22;4390;49.302;9.306;2022-10-16T06:31:28;15.60;98.30
8707;DHT22;4390;49.302;9.306;2022-10-16T06:33:57;15.50;98.30
8707;DHT22;4390;49.302;9.306;2022-10-16T06:36:25;15.60;98.30
8707;DHT22;4390;49.302;9.306;2022-10-16T06:38:52;15.70;98.30
8707;DHT22;4390;49.302;9.306;2022-10-16T06:41:20;15.70;98.30
8707;DHT22;4390;49.302;9.306;2022-10-16T06:43:48;15.90;98.30
8707;DHT22;4390;49.302;9.306;2022-10-16T06:46:17;15.90;98.30
8707;DHT22;4390;49.302;9.306;2022-10-16T06:48:50;15.60;98.30
8707;DHT22;4390;49.302;9.306;2022-10-16T06:51:22;15.70;98.30
8707;DHT22;4390;49.302;9.306;2022-10-16T06:53:52;15.90;98.30
8707;DHT22;4390;49.302;9.306;2022-10-16T06:56:31;16.10;98.30
8707;DHT22;4390;49.302;9.306;2022-10-16T06:58:59;15.90;98.30
8707;DHT22;4390;49.302;9.306;2022-10-16T07:01:27;16.20;98.30
8707;DHT22;4390;49.302;9.306;2022-10-16T07:03:55;16.10;98.30
8707;DHT22;4390;49.302;9.306;2022-10-16T07:06:25;16.20;98.30
8707;DHT22;4390;49.302;9.306;2022-10-16T07:09:06;16.20;98.30
8707;DHT22;4390;49.302;9.306;2022-10-16T07:11:33;15.80;98.30
8707;DHT22;4390;49.302;9.306;2022-10-16T07:14:01;15.70;98.30
8707;DHT22;4390;49.302;9.306;2022-10-16T07:16:29;15.80;98.30
8707;DHT22;4390;49.302;9.306;2022-10-16T07:18:59;15.80;98.30
8707;DHT22;4390;49.302;9.306;2022-10-16T07:21:29;15.80;98.30
8707;DHT22;4390;49.302;9.306;2022-10-16T07:23:59;15.70;98.30
8707;DHT22;4390;49.302;9.306;2022-10-16T07:26:28;15.70;98.30
8707;DHT22;4390;49.302;9.306;2022-10-16T07:28:57;15.80;98.30
8707;DHT22;4390;49.302;9.306;2022-10-16T07:31:25;15.90;98.30
8707;DHT22;4390;49.302;9.306;2022-10-16T07:33:57;16.00;98.30
8707;DHT22;4390;49.302;9.306;2022-10-16T07:36:24;16.20;98.30
8707;DHT22;4390;49.302;9.306;2022-10-16T07:38:51;16.20;98.30
8707;DHT22;4390;49.302;9.306;2022-10-16T07:41:24;16.10;98.30
8707;DHT22;4390;49.302;9.306;2022-10-16T07:43:53;16.20;98.30
8707;DHT22;4390;49.302;9.306;2022-10-16T07:46:22;16.20;98.30
8707;DHT22;4390;49.302;9.306;2022-10-16T07:48:49;16.20;98.30
8707;DHT22;4390;49.302;9.306;2022-10-16T07:51:18;16.40;98.30
8707;DHT22;4390;49.302;9.306;2022-10-16T07:53:46;16.40;98.30
8707;DHT22;4390;49.302;9.306;2022-10-16T07:56:14;16.30;98.30
8707;DHT22;4390;49.302;9.306;2022-10-16T07:58:41;16.30;98.30
8707;DHT22;4390;49.302;9.306;2022-10-16T08:01:11;16.30;98.30
8707;DHT22;4390;49.302;9.306;2022-10-16T08:03:43;16.50;98.30
8707;DHT22;4390;49.302;9.306;2022-10-16T08:06:11;16.70;98.30
8707;DHT22;4390;49.302;9.306;2022-10-16T08:08:38;16.70;98.30
8707;DHT22;4390;49.302;9.306;2022-10-16T08:11:04;16.70;98.30
8707;DHT22;4390;49.302;9.306;2022-10-16T08:13:32;16.80;98.30
8707;DHT22;4390;49.302;9.306;2022-10-16T08:15:58;17.00;98.30
8707;DHT22;4390;49.302;9.306;2022-10-16T08:18:29;17.20;98.30
8707;DHT22;4390;49.302;9.306;2022-10-16T08:20:58;17.20;98.30
8707;DHT22;4390;49.302;9.306;2022-10-16T08:23:25;17.20;98.30
8707;DHT22;4390;49.302;9.306;2022-10-16T08:25:54;17.20;98.30
8707;DHT22;4390;49.302;9.306;2022-10-16T08:28:22;17.50;98.30
8707;DHT22;4390;49.302;9.306;2022-10-16T08:30:49;17.50;98.30
8707;DHT22;4390;49.302;9.306;2022-10-16T08:33:16;17.60;98.30
8707;DHT22;4390;49.302;9.306;2022-10-16T08:35:50;17.70;98.30
8707;DHT22;4390;49.302;9.306;2022-10-16T08:38:17;17.90;98.30
8707;DHT22;4390;49.302;9.306;2022-10-16T08:40:44;17.80;98.30
8707;DHT22;4390;49.302;9.306;2022-10-16T08:48:46;18.20;98.30
8707;DHT22;4390;49.302;9.306;2022-10-16T08:51:29;18.10;98.30
8707;DHT22;4390;49.302;9.306;2022-10-16T08:54:31;18.20;98.30
8707;DHT22;4390;49.302;9.306;2022-10-16T08:57:09;18.60;98.30
8707;DHT22;4390;49.302;9.306;2022-10-16T08:59:37;18.80;98.30
8707;DHT22;4390;49.302;9.306;2022-10-16T09:05:17;19.20;98.30
8707;DHT22;4390;49.302;9.306;2022-10-16T09:08:26;19.30;98.00
8707;DHT22;4390;49.302;9.306;2022-10-16T09:11:16;19.60;95.90
8707;DHT22;4390;49.302;9.306;2022-10-16T09:13:48;19.60;95.80
8707;DHT22;4390;49.302;9.306;2022-10-16T09:19:27;19.40;96.40
8707;DHT22;4390;49.302;9.306;2022-10-16T09:21:55;19.40;96.40
8707;DHT22;4390;49.302;9.306;2022-10-16T09:24:25;19.80;95.40
8707;DHT22;4390;49.302;9.306;2022-10-16T09:26:54;19.80;94.30
8707;DHT22;4390;49.302;9.306;2022-10-16T09:29:21;19.80;94.70
8707;DHT22;4390;49.302;9.306;2022-10-16T09:31:53;20.00;95.20
8707;DHT22;4390;49.302;9.306;2022-10-16T09:34:30;19.90;95.30
8707;DHT22;4390;49.302;9.306;2022-10-16T09:36:59;20.10;93.90
8707;DHT22;4390;49.302;9.306;2022-10-16T09:39:26;20.20;94.00
8707;DHT22;4390;49.302;9.306;2022-10-16T09:41:53;20.10;93.00
8707;DHT22;4390;49.302;9.306;2022-10-16T09:44:29;19.90;94.00
8707;DHT22;4390;49.302;9.306;2022-10-16T09:47:14;20.10;95.00
8707;DHT22;4390;49.302;9.306;2022-10-16T09:49:59;20.40;93.90
8707;DHT22;4390;49.302;9.306;2022-10-16T09:52:29;21.40;91.90
8707;DHT22;4390;49.302;9.306;2022-10-16T09:54:58;21.50;90.40
8707;DHT22;4390;49.302;9.306;2022-10-16T09:57:25;21.50;91.50
8707;DHT22;4390;49.302;9.306;2022-10-16T09:59:55;21.70;91.50
8707;DHT22;4390;49.302;9.306;2022-10-16T10:02:35;23.00;90.90
8707;DHT22;4390;49.302;9.306;2022-10-16T10:05:04;25.20;85.80
8707;DHT22;4390;49.302;9.306;2022-10-16T10:07:33;26.30;81.90
8707;DHT22;4390;49.302;9.306;2022-10-16T10:10:04;26.00;81.70
8707;DHT22;4390;49.302;9.306;2022-10-16T10:12:33;26.20;81.70
8707;DHT22;4390;49.302;9.306;2022-10-16T10:15:07;26.40;80.70
8707;DHT22;4390;49.302;9.306;2022-10-16T10:17:57;26.10;81.30
8707;DHT22;4390;49.302;9.306;2022-10-16T10:22:56;32.40;72.50
8707;DHT22;4390;49.302;9.306;2022-10-16T10:31:43;37.60;64.40
8707;DHT22;4390;49.302;9.306;2022-10-16T10:36:58;39.50;60.30
8707;DHT22;4390;49.302;9.306;2022-10-16T10:39:38;39.10;60.80
8707;DHT22;4390;49.302;9.306;2022-10-16T10:52:57;41.50;57.20
8707;DHT22;4390;49.302;9.306;2022-10-16T11:01:11;36.90;60.90
8707;DHT22;4390;49.302;9.306;2022-10-16T11:06:52;34.30;63.20
8707;DHT22;4390;49.302;9.306;2022-10-16T11:09:36;33.00;65.60
8707;DHT22;4390;49.302;9.306;2022-10-16T11:12:11;31.40;67.30
8707;DHT22;4390;49.302;9.306;2022-10-16T11:14:48;30.80;69.00
8707;DHT22;4390;49.302;9.306;2022-10-16T11:17:22;30.70;68.40
8707;DHT22;4390;49.302;9.306;2022-10-16T11:20:16;32.20;67.70
8707;DHT22;4390;49.302;9.306;2022-10-16T11:22:51;33.80;65.40
8707;DHT22;4390;49.302;9.306;2022-10-16T11:25:26;35.00;63.70
8707;DHT22;4390;49.302;9.306;2022-10-16T11:28:10;36.00;61.90
